createdAt,value
2022-10-25T00:00:31.000Z,17.92
2022-10-25T00:02:57.455Z,16.95
2022-10-25T00:05:24.001Z,21.38
2022-10-25T00:07:56.034Z,17.92
2022-10-25T00:10:25.564Z,14.88
2022-10-25T00:12:52.438Z,17.02
2022-10-25T00:15:18.894Z,20.17
2022-10-25T00:17:45.710Z,18.10
2022-10-25T00:20:12.685Z,16.33
2022-10-25T00:22:39.480Z,20.65
2022-10-25T00:25:07.420Z,19.17
2022-10-25T00:27:34.433Z,18.95
2022-10-25T00:30:01.182Z,22.35
2022-10-25T00:32:27.939Z,20.42
2022-10-25T00:34:54.469Z,19.25
2022-10-25T00:37:20.924Z,13.93
2022-10-25T00:39:47.459Z,19.30
2022-10-25T00:42:19.281Z,19.65
2022-10-25T00:44:50.353Z,18.40
2022-10-25T00:47:19.666Z,16.52
2022-10-25T00:50:17.706Z,17.50
2022-10-25T00:52:45.895Z,18.25
2022-10-25T00:55:14.381Z,19.08
2022-10-25T00:57:46.308Z,19.00
2022-10-25T01:00:13.342Z,20.25
2022-10-25T01:02:39.948Z,18.50
2022-10-25T01:05:06.990Z,26.67
2022-10-25T01:07:33.439Z,20.08
2022-10-25T01:09:59.896Z,24.48
2022-10-25T01:12:26.369Z,21.02
2022-10-25T01:14:53.009Z,26.63
2022-10-25T01:17:28.209Z,23.27
2022-10-25T01:20:22.702Z,24.17
2022-10-25T01:22:54.100Z,20.50
2022-10-25T01:25:45.222Z,19.02
2022-10-25T01:28:53.226Z,26.63
2022-10-25T01:31:22.431Z,23.98
2022-10-25T01:34:01.847Z,29.42
2022-10-25T01:36:46.093Z,22.10
2022-10-25T01:39:15.950Z,26.20
2022-10-25T01:42:05.900Z,18.27
2022-10-25T01:47:14.923Z,21.02
2022-10-25T01:49:41.988Z,24.42
2022-10-25T01:52:08.731Z,23.25
2022-10-25T01:54:35.268Z,27.45
2022-10-25T01:57:20.582Z,29.25
2022-10-25T02:00:04.086Z,25.30
2022-10-25T02:02:36.371Z,26.42
2022-10-25T02:05:22.046Z,21.92
2022-10-25T02:08:03.181Z,23.88
2022-10-25T02:10:35.534Z,23.17
2022-10-25T02:13:24.315Z,23.42
2022-10-25T02:15:59.082Z,19.92
2022-10-25T02:21:02.056Z,23.98
2022-10-25T02:23:29.387Z,25.02
2022-10-25T02:25:57.031Z,32.13
2022-10-25T02:28:27.326Z,22.40
2022-10-25T02:30:54.460Z,24.58
2022-10-25T02:33:20.968Z,27.27
2022-10-25T02:36:07.547Z,24.00
2022-10-25T02:38:34.388Z,23.50
2022-10-25T02:41:02.690Z,25.67
2022-10-25T02:46:05.796Z,22.85
2022-10-25T02:48:32.257Z,27.05
2022-10-25T02:50:58.749Z,26.08
2022-10-25T02:53:25.266Z,21.05
2022-10-25T02:56:16.095Z,23.02
2022-10-25T02:58:44.270Z,19.83
2022-10-25T03:01:12.042Z,20.35
2022-10-25T03:03:38.867Z,18.65
2022-10-25T03:06:06.406Z,12.68
2022-10-25T03:08:33.218Z,15.35
2022-10-25T03:11:00.035Z,15.40
2022-10-25T03:13:26.557Z,21.90
2022-10-25T03:15:53.038Z,17.95
2022-10-25T03:18:19.493Z,16.77
2022-10-25T03:20:46.138Z,22.77
2022-10-25T03:23:12.874Z,17.75
2022-10-25T03:25:39.870Z,20.48
2022-10-25T03:28:06.395Z,19.35
2022-10-25T03:30:32.910Z,18.05
2022-10-25T03:32:59.896Z,15.48
2022-10-25T03:35:26.476Z,11.90
2022-10-25T03:37:53.521Z,12.18
2022-10-25T03:40:20.653Z,16.40
2022-10-25T03:42:47.219Z,10.27
2022-10-25T03:45:13.717Z,14.32
2022-10-25T03:47:40.387Z,15.63
2022-10-25T03:50:07.411Z,15.82
2022-10-25T03:52:33.867Z,14.98
2022-10-25T03:55:00.578Z,11.63
2022-10-25T03:57:27.072Z,9.68
2022-10-25T03:59:53.582Z,10.25
2022-10-25T04:02:20.050Z,8.27
2022-10-25T04:04:46.541Z,8.35
2022-10-25T04:07:13.003Z,8.80
2022-10-25T04:09:39.551Z,11.68
2022-10-25T04:12:06.004Z,9.10
2022-10-25T04:14:32.489Z,11.18
2022-10-25T04:16:58.983Z,13.10
2022-10-25T04:19:25.477Z,11.25
2022-10-25T04:21:51.917Z,13.85
2022-10-25T04:24:18.459Z,14.82
2022-10-25T04:26:44.918Z,12.20
2022-10-25T04:29:11.776Z,12.60
2022-10-25T04:31:38.213Z,9.07
2022-10-25T04:34:04.738Z,12.52
2022-10-25T04:36:31.396Z,13.73
2022-10-25T04:38:57.973Z,17.00
2022-10-25T04:41:24.520Z,11.13
2022-10-25T04:43:51.596Z,6.35
2022-10-25T04:46:19.033Z,12.27
2022-10-25T04:48:45.507Z,14.57
2022-10-25T04:51:12.329Z,10.02
2022-10-25T04:53:38.947Z,13.77
2022-10-25T04:56:07.911Z,17.58
2022-10-25T04:58:34.769Z,16.05
2022-10-25T05:01:07.307Z,15.43
2022-10-25T05:03:34.355Z,16.92
2022-10-25T05:06:06.887Z,14.88
2022-10-25T05:08:33.491Z,14.38
2022-10-25T05:10:59.968Z,12.95
2022-10-25T05:13:26.415Z,13.10
2022-10-25T05:15:56.879Z,15.13
2022-10-25T05:18:23.465Z,15.77
2022-10-25T05:21:07.083Z,16.20
2022-10-25T05:23:34.729Z,14.60
2022-10-25T05:26:08.386Z,13.20
2022-10-25T05:33:40.704Z,12.07
2022-10-25T05:36:07.726Z,12.43
2022-10-25T05:38:36.996Z,7.10
2022-10-25T05:41:05.083Z,5.00
2022-10-25T05:43:31.863Z,6.35
2022-10-25T05:46:09.420Z,4.57
2022-10-25T05:48:36.719Z,4.70
2022-10-25T05:51:32.896Z,4.70
2022-10-25T05:54:02.721Z,4.68
2022-10-25T05:56:30.337Z,2.10
2022-10-25T05:58:59.568Z,5.93
2022-10-25T06:01:26.798Z,8.75
2022-10-25T06:03:54.876Z,12.55
2022-10-25T06:06:22.375Z,4.00
2022-10-25T06:08:48.820Z,10.82
2022-10-25T06:11:17.633Z,10.23
2022-10-25T06:13:44.353Z,19.88
2022-10-25T06:16:20.898Z,13.23
2022-10-25T06:18:47.423Z,16.17
2022-10-25T06:21:17.613Z,19.38
2022-10-25T06:23:44.654Z,23.65
2022-10-25T06:26:13.319Z,20.75
2022-10-25T06:28:39.930Z,25.00
2022-10-25T06:31:11.139Z,22.52
2022-10-25T06:33:38.223Z,27.40
2022-10-25T06:36:07.326Z,24.00
2022-10-25T06:38:34.071Z,23.80
2022-10-25T06:41:02.575Z,22.30
2022-10-25T06:43:29.646Z,32.45
2022-10-25T06:45:56.423Z,22.35
2022-10-25T06:48:23.330Z,23.60
2022-10-25T06:51:01.610Z,25.08
2022-10-25T06:53:28.086Z,29.38
2022-10-25T06:55:54.539Z,32.30
2022-10-25T06:58:20.986Z,28.02
2022-10-25T07:00:49.812Z,33.08
2022-10-25T07:03:16.433Z,33.83
2022-10-25T07:05:42.893Z,30.60
2022-10-25T07:08:09.344Z,27.90
2022-10-25T07:10:35.875Z,24.38
2022-10-25T07:13:02.337Z,22.08
2022-10-25T07:15:28.795Z,28.80
2022-10-25T07:17:55.404Z,25.40
2022-10-25T07:20:21.924Z,28.25
2022-10-25T07:22:50.262Z,23.88
2022-10-25T07:25:16.726Z,30.23
2022-10-25T07:27:43.255Z,28.20
2022-10-25T07:30:10.063Z,29.98
2022-10-25T07:32:41.421Z,25.63
2022-10-25T07:35:09.222Z,26.52
2022-10-25T07:37:35.678Z,25.52
2022-10-25T07:40:02.131Z,27.75
2022-10-25T07:42:28.654Z,25.92
2022-10-25T07:44:55.146Z,30.48
2022-10-25T07:47:21.635Z,24.13
2022-10-25T07:49:48.104Z,25.08
2022-10-25T07:52:14.560Z,24.05
2022-10-25T07:54:41.081Z,30.30
2022-10-25T07:57:08.029Z,21.30
2022-10-25T07:59:34.503Z,21.67
2022-10-25T08:02:00.963Z,23.25
2022-10-25T08:07:01.618Z,20.55
2022-10-25T08:09:37.663Z,21.80
2022-10-25T08:12:04.699Z,16.15
2022-10-25T08:14:32.966Z,23.95
2022-10-25T08:17:01.593Z,20.17
2022-10-25T08:19:28.066Z,21.05
2022-10-25T08:21:54.528Z,23.73
2022-10-25T08:24:21.065Z,25.05
2022-10-25T08:26:47.598Z,21.42
2022-10-25T08:29:14.097Z,19.10
2022-10-25T08:31:40.571Z,24.15
2022-10-25T08:34:07.218Z,15.93
2022-10-25T08:36:33.802Z,20.13
2022-10-25T08:39:00.278Z,21.92
2022-10-25T08:41:51.540Z,24.10
2022-10-25T08:44:33.950Z,20.95
2022-10-25T08:47:21.684Z,23.45
2022-10-25T08:49:53.943Z,23.13
2022-10-25T08:52:39.101Z,20.30
2022-10-25T08:55:12.862Z,18.05
2022-10-25T08:57:41.547Z,22.65
2022-10-25T09:00:13.094Z,21.17
2022-10-25T09:02:52.372Z,25.73
2022-10-25T09:05:36.681Z,25.27
2022-10-25T09:08:15.255Z,18.75
2022-10-25T09:11:15.765Z,14.95
2022-10-25T09:14:15.456Z,25.17
2022-10-25T09:16:53.456Z,22.15
2022-10-25T09:19:20.460Z,22.58
2022-10-25T09:21:51.532Z,18.50
2022-10-25T09:24:37.555Z,19.63
2022-10-25T09:27:11.709Z,14.60
2022-10-25T09:29:40.105Z,20.73
2022-10-25T09:32:22.900Z,15.55
2022-10-25T09:34:49.532Z,18.73
2022-10-25T09:37:46.166Z,18.48
2022-10-25T09:40:16.380Z,16.98
2022-10-25T09:42:48.678Z,22.95
2022-10-25T09:45:23.293Z,21.13
2022-10-25T09:48:05.035Z,18.48
2022-10-25T09:50:51.653Z,17.77
2022-10-25T09:53:21.601Z,15.38
2022-10-25T09:55:54.146Z,17.25
2022-10-25T09:58:22.155Z,16.60
2022-10-25T10:00:51.027Z,14.70
2022-10-25T10:03:18.418Z,13.65
2022-10-25T10:05:55.226Z,13.75
2022-10-25T10:08:21.771Z,15.48
2022-10-25T10:10:48.975Z,14.95
2022-10-25T10:13:36.260Z,13.13
2022-10-25T10:16:05.482Z,16.95
2022-10-25T10:18:33.844Z,16.17
2022-10-25T10:21:10.935Z,18.83
2022-10-25T10:23:44.399Z,18.65
2022-10-25T10:26:10.804Z,11.65
2022-10-25T10:28:37.416Z,16.77
2022-10-25T10:31:05.889Z,16.83
2022-10-25T10:33:33.069Z,20.23
2022-10-25T10:36:20.568Z,16.67
2022-10-25T10:38:47.059Z,17.65
2022-10-25T10:41:18.706Z,18.02
2022-10-25T10:43:45.162Z,18.55
2022-10-25T10:46:15.246Z,18.38
2022-10-25T10:48:44.021Z,19.55
2022-10-25T10:51:32.047Z,16.73
2022-10-25T10:54:22.074Z,16.48
2022-10-25T10:57:03.449Z,16.55
2022-10-25T10:59:34.282Z,16.25
2022-10-25T11:02:37.741Z,14.80
2022-10-25T11:05:21.335Z,16.10
2022-10-25T11:08:21.656Z,15.32
2022-10-25T11:10:48.099Z,14.25
2022-10-25T11:13:16.892Z,17.88
2022-10-25T11:16:14.312Z,13.85
2022-10-25T11:18:46.658Z,15.23
2022-10-25T11:21:37.876Z,13.13
2022-10-25T11:24:25.804Z,11.52
2022-10-25T11:27:05.039Z,14.63
2022-10-25T11:29:49.558Z,9.50
2022-10-25T11:32:27.794Z,10.43
2022-10-25T11:35:39.364Z,14.65
2022-10-25T11:38:23.795Z,10.23
2022-10-25T11:41:03.823Z,12.45
2022-10-25T11:44:07.726Z,10.15
2022-10-25T11:46:52.608Z,11.68
2022-10-25T11:49:37.227Z,12.15
2022-10-25T11:52:22.367Z,11.60
2022-10-25T11:55:07.098Z,10.70
2022-10-25T11:57:55.681Z,11.93
2022-10-25T12:00:23.733Z,7.85
2022-10-25T12:03:09.394Z,14.82
2022-10-25T12:06:09.966Z,12.57
2022-10-25T12:08:54.692Z,10.88
2022-10-25T12:11:26.825Z,12.95
2022-10-25T12:13:55.517Z,13.57
2022-10-25T12:16:23.320Z,13.73
2022-10-25T12:18:51.650Z,13.98
2022-10-25T12:21:21.243Z,7.57
2022-10-25T12:23:50.293Z,13.63
2022-10-25T12:26:28.255Z,18.77
2022-10-25T12:28:55.774Z,12.48
2022-10-25T12:31:40.984Z,15.57
2022-10-25T12:34:40.109Z,11.20
2022-10-25T12:37:13.991Z,10.73
2022-10-25T12:39:42.559Z,9.45
2022-10-25T12:42:15.839Z,9.23
2022-10-25T12:45:14.085Z,11.85
2022-10-25T12:48:16.457Z,9.98
2022-10-25T12:50:48.001Z,10.00
2022-10-25T12:53:34.558Z,9.10
2022-10-25T12:56:03.652Z,12.90
2022-10-25T12:58:40.760Z,9.77
2022-10-25T13:01:13.160Z,12.15
2022-10-25T13:03:58.377Z,14.65
2022-10-25T13:06:34.220Z,9.02
2022-10-25T13:09:04.751Z,12.50
2022-10-25T13:11:37.100Z,9.13
2022-10-25T13:14:03.920Z,12.00
2022-10-25T13:16:33.638Z,12.57
2022-10-25T13:19:30.620Z,12.75
2022-10-25T13:22:35.783Z,12.65
2022-10-25T13:25:08.144Z,10.75
2022-10-25T13:27:35.877Z,13.52
2022-10-25T13:30:08.332Z,10.52
2022-10-25T13:32:39.512Z,10.68
2022-10-25T13:35:25.769Z,14.30
2022-10-25T13:38:06.298Z,10.98
2022-10-25T13:40:33.376Z,14.98
2022-10-25T13:43:02.960Z,13.77
2022-10-25T13:45:34.723Z,10.13
2022-10-25T13:48:17.746Z,14.52
2022-10-25T13:50:51.851Z,16.93
2022-10-25T13:53:24.468Z,10.35
2022-10-25T13:56:08.124Z,12.43
2022-10-25T13:58:42.166Z,10.88
2022-10-25T14:01:17.871Z,10.52
2022-10-25T14:03:50.064Z,12.85
2022-10-25T14:06:34.117Z,10.88
2022-10-25T14:09:09.757Z,10.57
2022-10-25T14:11:41.453Z,10.13
2022-10-25T14:14:10.840Z,10.25
2022-10-25T14:17:20.621Z,10.30
2022-10-25T14:19:50.338Z,12.23
2022-10-25T14:22:18.831Z,11.20
2022-10-25T14:24:48.935Z,11.52
2022-10-25T14:27:35.565Z,12.35
2022-10-25T14:30:29.258Z,13.70
2022-10-25T14:32:56.552Z,9.50
2022-10-25T14:35:25.464Z,12.18
2022-10-25T14:37:52.038Z,17.60
2022-10-25T14:40:21.575Z,13.02
2022-10-25T14:42:48.257Z,15.65
2022-10-25T14:45:33.091Z,9.15
2022-10-25T14:48:08.792Z,13.55
2022-10-25T14:50:35.917Z,10.88
2022-10-25T14:53:02.372Z,10.93
2022-10-25T14:55:32.693Z,9.13
2022-10-25T14:58:01.856Z,11.88
2022-10-25T15:00:28.474Z,10.38
2022-10-25T15:03:03.804Z,15.15
2022-10-25T15:05:30.304Z,13.57
2022-10-25T15:07:58.487Z,12.70
2022-10-25T15:10:33.240Z,11.05
2022-10-25T15:13:13.745Z,13.00
2022-10-25T15:15:45.392Z,11.88
2022-10-25T15:18:26.969Z,17.25
2022-10-25T15:21:12.262Z,18.13
2022-10-25T15:23:40.395Z,19.95
2022-10-25T15:26:23.272Z,13.80
2022-10-25T15:28:52.233Z,18.55
2022-10-25T15:31:24.557Z,13.18
2022-10-25T15:34:02.827Z,18.70
2022-10-25T15:36:31.462Z,13.68
2022-10-25T15:39:11.657Z,13.00
2022-10-25T15:41:42.322Z,14.63
2022-10-25T15:44:08.818Z,19.17
2022-10-25T15:46:42.366Z,14.13
2022-10-25T15:49:11.550Z,11.27
2022-10-25T15:51:40.791Z,17.38
2022-10-25T15:54:14.762Z,13.25
2022-10-25T15:56:41.330Z,20.27
2022-10-25T15:59:07.923Z,13.25
2022-10-25T16:01:34.469Z,15.82
2022-10-25T16:04:01.059Z,12.38
2022-10-25T16:06:27.614Z,11.88
2022-10-25T16:08:54.075Z,10.68
2022-10-25T16:11:21.358Z,11.40
2022-10-25T16:13:50.575Z,11.27
2022-10-25T16:16:39.373Z,14.73
2022-10-25T16:19:06.613Z,12.10
2022-10-25T16:21:33.182Z,11.60
2022-10-25T16:23:59.698Z,14.82
2022-10-25T16:26:34.351Z,14.32
2022-10-25T16:29:00.838Z,12.63
2022-10-25T16:31:27.381Z,13.48
2022-10-25T16:33:54.652Z,15.90
2022-10-25T16:36:21.218Z,18.55
2022-10-25T16:38:48.137Z,15.43
2022-10-25T16:41:23.574Z,9.77
2022-10-25T16:43:50.208Z,15.45
2022-10-25T16:46:16.702Z,19.05
2022-10-25T16:48:43.173Z,13.45
2022-10-25T16:51:12.530Z,18.77
2022-10-25T16:53:39.056Z,17.38
2022-10-25T16:56:05.539Z,9.25
2022-10-25T16:58:32.085Z,11.05
2022-10-25T17:00:58.744Z,14.27
2022-10-25T17:03:25.470Z,11.82
2022-10-25T17:05:52.422Z,12.18
2022-10-25T17:08:18.927Z,12.20
2022-10-25T17:10:46.188Z,16.42
2022-10-25T17:13:15.562Z,14.50
2022-10-25T17:15:42.478Z,16.27
2022-10-25T17:18:11.690Z,16.02
2022-10-25T17:20:40.411Z,13.50
2022-10-25T17:23:06.870Z,12.27
2022-10-25T17:25:33.374Z,15.05
2022-10-25T17:28:00.103Z,14.07
2022-10-25T17:30:26.627Z,11.45
2022-10-25T17:32:53.218Z,10.00
2022-10-25T17:35:27.116Z,16.45
2022-10-25T17:37:56.019Z,13.60
2022-10-25T17:40:22.765Z,9.50
2022-10-25T17:42:49.773Z,12.07
2022-10-25T17:45:16.261Z,12.88
2022-10-25T17:47:43.056Z,10.95
2022-10-25T17:50:10.629Z,15.65
2022-10-25T17:52:41.180Z,12.25
2022-10-25T17:55:10.170Z,18.73
2022-10-25T17:57:36.733Z,12.20
2022-10-25T18:00:04.182Z,12.93
2022-10-25T18:02:30.866Z,9.23
2022-10-25T18:05:21.554Z,13.13
2022-10-25T18:07:43.870Z,12.98
2022-10-25T18:10:10.371Z,11.10
2022-10-25T18:12:36.848Z,10.57
2022-10-25T18:15:04.746Z,18.75
2022-10-25T18:17:31.243Z,11.38
2022-10-25T18:19:58.303Z,12.05
2022-10-25T18:22:24.859Z,14.45
2022-10-25T18:24:51.407Z,19.48
2022-10-25T18:27:17.960Z,12.13
2022-10-25T18:29:44.440Z,13.45
2022-10-25T18:32:10.900Z,15.60
2022-10-25T18:34:37.409Z,19.63
2022-10-25T18:37:03.860Z,15.68
2022-10-25T18:39:30.400Z,12.25
2022-10-25T18:41:58.014Z,12.82
2022-10-25T18:44:24.732Z,16.50
2022-10-25T18:46:51.195Z,18.65
2022-10-25T18:49:17.798Z,14.35
2022-10-25T18:51:44.322Z,14.57
2022-10-25T18:54:14.081Z,11.45
2022-10-25T18:56:40.870Z,11.07
2022-10-25T18:59:09.968Z,14.52
2022-10-25T19:01:36.558Z,10.73
2022-10-25T19:04:03.903Z,12.75
2022-10-25T19:06:31.753Z,14.45
2022-10-25T19:08:58.585Z,13.48
2022-10-25T19:11:25.078Z,12.98
2022-10-25T19:13:55.566Z,15.27
2022-10-25T19:16:22.631Z,11.27
2022-10-25T19:18:49.425Z,9.48
2022-10-25T19:21:18.239Z,15.50
2022-10-25T19:23:46.286Z,23.35
2022-10-25T19:26:18.563Z,11.32
2022-10-25T19:28:45.543Z,15.10
2022-10-25T19:31:14.394Z,8.77
2022-10-25T19:33:47.625Z,11.32
2022-10-25T19:36:14.941Z,9.82
2022-10-25T19:38:41.660Z,13.88
2022-10-25T19:41:09.872Z,16.38
2022-10-25T19:43:36.721Z,13.07
2022-10-25T19:46:05.140Z,10.27
2022-10-25T19:48:31.794Z,15.88
2022-10-25T19:51:04.879Z,10.55
2022-10-25T19:53:31.439Z,13.23
2022-10-25T19:56:02.905Z,13.35
2022-10-25T19:58:29.389Z,13.93
2022-10-25T20:01:07.249Z,13.98
2022-10-25T20:03:34.684Z,12.07
2022-10-25T20:06:03.159Z,12.63
2022-10-25T20:08:32.098Z,14.80
2022-10-25T20:10:58.572Z,17.38
2022-10-25T20:13:25.113Z,11.70
2022-10-25T20:15:52.655Z,8.77
2022-10-25T20:18:19.696Z,19.50
2022-10-25T20:20:51.775Z,9.18
2022-10-25T20:23:20.378Z,12.63
2022-10-25T20:25:46.957Z,11.38
2022-10-25T20:28:13.479Z,10.90
2022-10-25T20:30:40.876Z,13.68
2022-10-25T20:33:07.847Z,10.70
2022-10-25T20:35:44.650Z,13.00
2022-10-25T20:38:14.084Z,9.02
2022-10-25T20:40:40.587Z,7.88
2022-10-25T20:43:07.329Z,12.10
2022-10-25T20:45:33.870Z,12.93
2022-10-25T20:48:00.459Z,10.80
2022-10-25T20:50:29.797Z,8.75
2022-10-25T20:53:09.806Z,10.15
2022-10-25T20:55:37.142Z,10.82
2022-10-25T20:58:03.675Z,13.00
2022-10-25T21:00:30.179Z,9.07
2022-10-25T21:02:56.672Z,9.98
2022-10-25T21:05:23.225Z,18.27
2022-10-25T21:07:49.930Z,12.77
2022-10-25T21:10:16.911Z,12.65
2022-10-25T21:12:43.363Z,8.50
2022-10-25T21:15:12.050Z,10.57
2022-10-25T21:17:39.025Z,13.35
2022-10-25T21:20:06.092Z,15.30
2022-10-25T21:22:32.549Z,15.40
2022-10-25T21:24:59.041Z,21.73
2022-10-25T21:27:25.535Z,10.73
2022-10-25T21:29:52.006Z,17.23
2022-10-25T21:32:18.543Z,12.50
2022-10-25T21:34:45.030Z,11.85
2022-10-25T21:37:11.587Z,11.82
2022-10-25T21:39:38.052Z,20.60
2022-10-25T21:42:04.710Z,16.90
2022-10-25T21:44:31.291Z,22.08
2022-10-25T21:46:57.778Z,17.15
2022-10-25T21:49:24.287Z,15.25
2022-10-25T21:51:50.758Z,10.65
2022-10-25T21:54:17.278Z,19.92
2022-10-25T21:56:43.940Z,16.15
2022-10-25T21:59:10.456Z,19.15
2022-10-25T22:01:37.025Z,18.77
2022-10-25T22:04:03.707Z,18.65
2022-10-25T22:06:30.447Z,15.48
2022-10-25T22:08:57.272Z,19.02
2022-10-25T22:11:26.482Z,18.52
2022-10-25T22:14:00.941Z,15.57
2022-10-25T22:16:27.608Z,24.30
2022-10-25T22:18:59.311Z,17.23
2022-10-25T22:21:33.937Z,9.35
2022-10-25T22:24:00.405Z,17.77
2022-10-25T22:26:27.076Z,16.38
2022-10-25T22:28:55.100Z,15.05
2022-10-25T22:31:21.755Z,18.40
2022-10-25T22:33:52.607Z,20.83
2022-10-25T22:36:20.806Z,19.90
2022-10-25T22:38:47.889Z,17.08
2022-10-25T22:41:16.070Z,27.05
2022-10-25T22:43:43.115Z,24.33
2022-10-25T22:46:25.364Z,28.10
2022-10-25T22:48:53.869Z,35.58
2022-10-25T22:51:21.635Z,28.20
2022-10-25T22:53:48.089Z,26.80
2022-10-25T22:56:19.451Z,26.42
2022-10-25T22:58:54.359Z,22.33
2022-10-25T23:01:26.092Z,28.20
2022-10-25T23:03:54.728Z,25.33
2022-10-25T23:06:32.193Z,28.15
2022-10-25T23:09:00.450Z,26.80
2022-10-25T23:11:29.452Z,21.38
2022-10-25T23:13:59.816Z,31.55
2022-10-25T23:16:26.903Z,29.63
2022-10-25T23:18:53.803Z,27.98
2022-10-25T23:21:30.956Z,23.73
2022-10-25T23:23:59.109Z,26.25
2022-10-25T23:26:29.605Z,31.60
2022-10-25T23:28:56.547Z,30.80
2022-10-25T23:31:24.049Z,26.38
2022-10-25T23:33:54.732Z,34.58
2022-10-25T23:36:23.204Z,29.63
2022-10-25T23:38:52.679Z,20.90
2022-10-25T23:41:20.570Z,25.92
2022-10-25T23:43:47.188Z,23.70
2022-10-25T23:46:13.905Z,31.20
2022-10-25T23:48:40.605Z,24.85
2022-10-25T23:51:09.042Z,29.45
2022-10-25T23:53:35.864Z,25.38
2022-10-25T23:56:03.345Z,28.65
2022-10-25T23:58:29.928Z,29.60
